Terminal Aerodrome Forecast
Issued by NWS Pocatello, ID

Home | Current Version | Previous Version | Text Only | Print | Product List | Glossary On
Versions: 1 2 3 4 5 6 7 8 9 10 11 12 13 14 15 16 17 18 19 20 21 22 23 24 25 26 27 28 29 30
000
FTUS45 KPIH 210859 AAA
TAFBYI
TAF AMD
KBYI 210859Z 2109/2206 25011KT P6SM -SHRA SCT025 OVC040
      TEMPO 2109/2111 P6SM -SHRA BKN007 OVC010
     FM211100 26013G23KT P6SM -SHRA BKN014 OVC025=

USA.gov is the U.S. government's official web portal to all federal, state and local government web resources and services.